Data for 02/27/2005

Time Sea-Level Adjusted Pressure Absolute Pressure Temperature Relative Humidity Dew Point   
(mb) (inHg) (mb) (inHg) (C) (F) (%) (C) (F)
00:05 1018 30.06 848 25.04 0.9 33.6 43 -10.2 13.6
00:10 1018 30.06 848 25.04 0.9 33.7 43 -10.2 13.6
00:15 1018 30.06 848 25.04 0.8 33.5 44 -10 14
00:20 1018 30.06 848 25.04 0.7 33.3 45 -10 14
00:25 1018 30.06 848 25.04 0.7 33.3 44 -10.1 13.9
00:30 1019 30.09 848 25.04 0.7 33.3 45 -10 14.1
00:35 1019 30.09 848 25.04 0.7 33.2 45 -10 14
00:40 1019 30.09 848 25.04 0.6 33.2 45 -9.9 14.1
00:45 1019 30.09 848 25.04 0.7 33.2 46 -9.8 14.4
00:50 1019 30.09 848 25.04 0.6 33.1 46 -9.8 14.4
00:55 1019 30.09 848 25.04 0.6 33.1 46 -9.7 14.5
01:00 1019 30.09 848 25.04 0.6 33 46 -9.7 14.6
01:05 1019 30.09 848 25.04 0.5 33 47 -9.6 14.7
01:10 1019 30.09 848 25.04 0.3 32.6 48 -9.5 14.9
01:15 1019 30.09 848 25.04 0.2 32.4 48 -9.4 15.1
01:20 1019 30.09 848 25.04 0.2 32.4 48 -9.4 15
01:25 1019 30.09 848 25.04 0.3 32.5 48 -9.5 14.9
01:30 1019 30.09 848 25.04 0.4 32.7 48 -9.4 15
01:35 1019 30.09 848 25.04 0.3 32.5 49 -9.1 15.6
01:40 1019 30.09 848 25.04 0.1 32.2 50 -9.1 15.7
01:45 1019 30.09 848 25.04 0.1 32.2 50 -9.1 15.6
01:50 1019 30.09 848 25.04 -0 32 51 -9 15.7
01:55 1019 30.09 848 25.04 -0.1 31.8 51 -9.2 15.5
02:00 1019 30.09 848 25.04 -0.2 31.6 51 -9.2 15.5
02:05 1019 30.09 848 25.04 -0.2 31.6 51 -9.2 15.5
02:10 1019 30.09 848 25.04 -0.3 31.5 52 -9.1 15.7
02:15 1019 30.09 848 25.04 -0.4 31.3 51 -9.3 15.3
02:20 1019 30.09 848 25.04 -0.3 31.5 51 -9.1 15.6
02:25 1019 30.09 848 25.04 -0.3 31.5 52 -9.1 15.7
02:30 1019 30.09 848 25.04 -0.4 31.3 52 -9 15.7
02:35 1019 30.09 848 25.04 -0.5 31.2 53 -9 15.8
02:40 1019 30.09 848 25.04 -0.6 30.9 53 -9 15.7
02:45 1019 30.09 848 25.04 -0.7 30.7 53 -9.1 15.6
02:50 1019 30.09 848 25.04 -0.8 30.6 54 -8.9 15.9
02:55 1019 30.09 848 25.04 -0.8 30.5 54 -9 15.7
03:00 1019 30.09 848 25.04 -0.8 30.5 54 -8.9 15.9
03:05 1019 30.09 848 25.04 -0.8 30.6 54 -8.9 16
03:10 1019 30.09 848 25.04 -0.6 30.9 53 -9 15.9
03:15 1019 30.09 848 25.04 -0.5 31.1 53 -8.9 15.9
03:20 1019 30.09 848 25.04 -0.6 30.9 54 -8.9 16
03:25 1019 30.09 848 25.04 -0.7 30.7 54 -8.9 15.9
03:30 1019 30.09 848 25.04 -0.9 30.5 55 -8.8 16.2
03:35 1019 30.09 848 25.04 -0.9 30.4 55 -8.9 16
03:40 1019 30.09 848 25.04 -0.6 30.9 53 -9 15.8
03:45 1019 30.09 848 25.04 -0.4 31.3 53 -8.8 16.2
03:50 1019 30.09 848 25.04 -0.3 31.4 53 -8.7 16.3
03:55 1019 30.09 848 25.04 -0.4 31.2 54 -8.6 16.5
04:00 1019 30.09 848 25.04 -0.6 31 54 -8.7 16.3
04:05 1019 30.09 848 25.04 -0.7 30.7 55 -8.7 16.4
04:10 1019 30.09 848 25.04 -0.8 30.5 55 -8.7 16.4
04:15 1019 30.09 848 25.04 -0.9 30.3 56 -8.6 16.6
04:20 1019 30.09 848 25.04 -1.3 29.7 57 -8.7 16.3
04:25 1019 30.09 848 25.04 -1.6 29.1 58 -8.8 16.2
04:30 1019 30.09 848 25.04 -1.7 28.9 58 -8.8 16.1
04:35 1019 30.09 848 25.04 -1.8 28.8 59 -8.7 16.3
04:40 1019 30.09 849 25.07 -1.8 28.7 59 -8.7 16.3
04:45 1019 30.09 849 25.07 -2 28.5 59 -8.9 15.9
04:50 1019 30.09 849 25.07 -2.1 28.2 59 -9.1 15.6
04:55 1019 30.09 849 25.07 -2.1 28.2 58 -9.2 15.4
05:00 1019 30.09 849 25.07 -2.2 28 57 -9.5 14.8
05:05 1019 30.09 849 25.07 -2.5 27.5 58 -9.7 14.5
05:10 1019 30.09 849 25.07 -2.5 27.6 57 -9.9 14.3
05:15 1019 30.09 849 25.07 -2.5 27.5 58 -9.7 14.6
05:20 1019 30.09 849 25.07 -2.5 27.5 58 -9.7 14.6
05:25 1019 30.09 849 25.07 -2.3 27.8 56 -9.9 14.1
05:30 1019 30.09 849 25.07 -2.2 28 56 -9.9 14.3
05:35 1020 30.12 849 25.07 -2.1 28.2 55 -9.9 14.1
05:40 1019 30.09 849 25.07 -2.1 28.3 55 -9.9 14.2
05:45 1019 30.09 849 25.07 -2.1 28.2 56 -9.7 14.5
05:50 1019 30.09 849 25.07 -2.1 28.1 57 -9.6 14.8
05:55 1019 30.09 849 25.07 -2.3 27.8 57 -9.7 14.5
06:00 1019 30.09 849 25.07 -2.4 27.6 57 -9.7 14.5
06:05 1019 30.09 849 25.07 -2.6 27.3 58 -9.8 14.3
06:10 1019 30.09 849 25.07 -2.6 27.4 57 -9.9 14.2
06:15 1019 30.09 849 25.07 -2.5 27.5 57 -9.9 14.2
06:20 1019 30.09 849 25.07 -2.5 27.4 57 -9.8 14.3
06:25 1020 30.12 849 25.07 -2.6 27.3 58 -9.9 14.2
06:30 1019 30.09 849 25.07 -2.7 27.1 58 -9.9 14.2
06:35 1019 30.09 849 25.07 -2.8 26.9 59 -9.8 14.4
06:40 1020 30.12 849 25.07 -3 26.6 59 -9.9 14.1
06:45 1020 30.12 849 25.07 -3.1 26.4 60 -9.9 14.2
06:50 1020 30.12 849 25.07 -3.4 25.9 60 -10 14
06:55 1020 30.12 849 25.07 -3.5 25.7 61 -10 14
07:00 1020 30.12 849 25.07 -3.5 25.7 60 -10.1 13.8
07:05 1020 30.12 849 25.07 -3.6 25.6 61 -10.1 13.7
07:10 1020 30.12 849 25.07 -3.5 25.8 60 -10.1 13.8
07:15 1020 30.12 849 25.07 -3.5 25.8 59 -10.3 13.5
07:20 1020 30.12 849 25.07 -3.4 25.9 59 -10.2 13.6
07:25 1020 30.12 849 25.07 -3.3 26.1 58 -10.3 13.4
07:30 1020 30.12 849 25.07 -3.2 26.3 58 -10.3 13.5
07:35 1020 30.12 849 25.07 -3 26.5 58 -10.3 13.5
07:40 1020 30.12 849 25.07 -2.9 26.8 57 -10.2 13.7
07:45 1020 30.12 849 25.07 -2.7 27.1 57 -10.1 13.9
07:50 1020 30.12 849 25.07 -2.6 27.3 57 -10.1 13.8
07:55 1020 30.12 849 25.07 -2.4 27.6 56 -10.2 13.7
08:00 1020 30.12 849 25.07 -2.3 27.9 55 -10.1 13.8
08:05 1020 30.12 849 25.07 -2.2 28 55 -10 13.9
08:10 1020 30.12 849 25.07 -2.3 27.9 56 -10 13.9
08:15 1020 30.12 849 25.07 -2.4 27.7 56 -10 14
08:20 1020 30.12 849 25.07 -2.5 27.6 57 -9.9 14.2
08:25 1020 30.12 849 25.07 -2.3 27.9 56 -9.9 14.1
08:30 1020 30.12 849 25.07 -1.8 28.7 53 -10.1 13.8
08:35 1020 30.12 849 25.07 -1.4 29.4 52 -10 13.9
08:40 1020 30.12 849 25.07 -1.2 29.8 52 -10 14.1
08:45 1020 30.12 849 25.07 -0.5 31.2 48 -10.1 13.8
08:50 1020 30.12 849 25.07 -0.4 31.3 47 -10.4 13.3
08:55 1020 30.12 849 25.07 -0.4 31.4 48 -10.1 13.8
09:00 1020 30.12 849 25.07 0.4 32.7 45 -10.1 13.7
09:05 1020 30.12 849 25.07 0.4 32.7 45 -10.2 13.6
09:10 1020 30.12 849 25.07 0.8 33.5 45 -9.8 14.3
09:15 1020 30.12 849 25.07 1.4 34.6 43 -9.8 14.3
09:20 1020 30.12 849 25.07 1.8 35.3 40 -10.4 13.4
09:25 1020 30.12 849 25.07 2.7 36.9 37 -10.5 13
09:30 1020 30.12 849 25.07 3 37.4 38 -10.1 13.8
09:35 1020 30.12 849 25.07 2.7 36.8 38 -10.4 13.2
09:40 1020 30.12 850 25.1 3 37.4 39 -9.7 14.6
09:45 1020 30.12 850 25.1 2.7 36.8 39 -9.9 14.3
09:50 1020 30.12 849 25.07 2.9 37.3 39 -9.8 14.3
09:55 1020 30.12 849 25.07 3 37.4 38 -10 14
10:00 1020 30.12 849 25.07 3.4 38.1 37 -10.1 13.7
10:05 1020 30.12 849 25.07 4 39.3 35 -10.1 13.8
10:10 1020 30.12 849 25.07 4.6 40.2 34 -10.1 13.9
10:15 1020 30.12 849 25.07 4.4 40 34 -9.9 14.1
10:20 1020 30.12 849 25.07 4.4 39.9 34 -10.2 13.6
10:25 1020 30.12 849 25.07 4.9 40.8 32 -10.3 13.4
10:30 1020 30.12 849 25.07 4.9 40.9 33 -10.2 13.6
10:35 1020 30.12 849 25.07 4.6 40.4 34 -10.1 13.9
10:40 1020 30.12 849 25.07 5.3 41.6 32 -10.3 13.5
10:45 1020 30.12 849 25.07 5.5 41.9 31 -10.3 13.4
10:50 1020 30.12 849 25.07 5.5 41.8 32 -10 13.9
10:55 1020 30.12 849 25.07 5.8 42.5 31 -10 14
11:00 1020 30.12 849 25.07 6.5 43.6 30 -9.8 14.4
11:05 1020 30.12 849 25.07 5.5 42 33 -9.6 14.6
11:10 1020 30.12 849 25.07 4.8 40.6 34 -9.7 14.6
11:15 1020 30.12 849 25.07 4.5 40 35 -9.7 14.6
11:20 1020 30.12 849 25.07 5.5 41.8 31 -10.4 13.4
11:25 1020 30.12 849 25.07 6.3 43.3 31 -9.8 14.3
11:30 1020 30.12 849 25.07 6.9 44.3 30 -9.7 14.5
11:35 1020 30.12 849 25.07 7 44.5 28 -10.2 13.6
11:40 1020 30.12 849 25.07 6.8 44.3 30 -9.5 14.9
11:45 1020 30.12 849 25.07 6.5 43.7 30 -9.7 14.5
11:50 1020 30.12 849 25.07 7 44.7 29 -9.7 14.5
11:55 1020 30.12 849 25.07 7.4 45.4 28 -9.8 14.4
12:00 1020 30.12 849 25.07 7.5 45.5 30 -9.2 15.5
12:05 1020 30.12 849 25.07 5.8 42.5 33 -9.3 15.3
12:10 1020 30.12 849 25.07 6.1 43.1 31 -9.9 14.2
12:15 1020 30.12 849 25.07 7 44.7 29 -9.6 14.7
12:20 1020 30.12 849 25.07 7.8 46.1 28 -9.7 14.6
12:25 1019 30.09 849 25.07 7.8 46.1 28 -9.5 14.9
12:30 1019 30.09 849 25.07 7.2 44.9 29 -9.9 14.2
12:35 1019 30.09 849 25.07 7.6 45.6 28 -9.7 14.6
12:40 1019 30.09 849 25.07 6.8 44.3 31 -9.1 15.5
12:45 1019 30.09 848 25.04 6.6 43.9 31 -9.2 15.5
12:50 1019 30.09 848 25.04 6.2 43.2 32 -9.2 15.4
12:55 1019 30.09 848 25.04 6.6 43.9 31 -9.3 15.3
13:00 1019 30.09 848 25.04 7.8 46 28 -9.4 15
13:05 1019 30.09 848 25.04 7.9 46.3 27 -9.7 14.5
13:10 1019 30.09 848 25.04 8.5 47.2 27 -9.5 15
13:15 1019 30.09 848 25.04 8.2 46.8 29 -9 15.9
13:20 1019 30.09 848 25.04 7.4 45.4 29 -9.4 15
13:25 1019 30.09 848 25.04 8.1 46.6 28 -9.5 14.8
13:30 1019 30.09 848 25.04 8.9 48 27 -9.2 15.4
13:35 1019 30.09 848 25.04 8.9 48 27 -8.9 15.9
13:40 1019 30.09 848 25.04 8.3 47 28 -8.9 16
13:45 1019 30.09 848 25.04 8.9 47.9 27 -9.3 15.2
13:50 1019 30.09 848 25.04 9 48.2 27 -9.2 15.4
13:55 1019 30.09 848 25.04 9.1 48.4 26 -9.2 15.5
14:00 1019 30.09 848 25.04 9 48.3 27 -9 15.7
14:05 1019 30.09 848 25.04 9.3 48.7 26 -9.2 15.5
14:10 1019 30.09 848 25.04 9.6 49.2 25 -9.4 15.1
14:15 1019 30.09 848 25.04 9.3 48.7 27 -9 15.8
14:20 1019 30.09 848 25.04 9.2 48.6 27 -9 15.7
14:25 1019 30.09 848 25.04 9.6 49.3 26 -9.1 15.6
14:30 1018 30.06 848 25.04 9.3 48.7 27 -8.8 16.1
14:35 1018 30.06 848 25.04 9.2 48.5 27 -9 15.8
14:40 1018 30.06 848 25.04 9.6 49.2 26 -9.2 15.5
14:45 1018 30.06 847 25.01 9.9 49.8 26 -8.7 16.3
14:50 1018 30.06 847 25.01 10.2 50.4 25 -8.8 16.2
14:55 1018 30.06 847 25.01 10.4 50.6 25 -8.9 15.9
15:00 1018 30.06 847 25.01 10.1 50.2 24 -9.6 14.7
15:05 1018 30.06 847 25.01 10.1 50.2 24 -9.7 14.5
15:10 1018 30.06 847 25.01 9.8 49.6 25 -9.6 14.8
15:15 1018 30.06 847 25.01 8.7 47.7 27 -9.3 15.3
15:20 1018 30.06 847 25.01 9.5 49.1 24 -10.2 13.7
15:25 1018 30.06 847 25.01 9.9 49.7 24 -9.6 14.7
15:30 1018 30.06 847 25.01 9.2 48.5 25 -9.9 14.1
15:35 1018 30.06 847 25.01 8.6 47.5 25 -10.4 13.3
15:40 1018 30.06 847 25.01 9.5 49 24 -9.9 14.1
15:45 1018 30.06 847 25.01 9.9 49.9 24 -10 14.1
15:50 1018 30.06 847 25.01 10.3 50.5 24 -9.6 14.7
15:55 1018 30.06 847 25.01 10 50.1 23 -10.2 13.6
16:00 1018 30.06 847 25.01 10 49.9 24 -9.7 14.5
16:05 1018 30.06 847 25.01 9.9 49.8 23 -10.2 13.7
16:10 1018 30.06 847 25.01 9.9 49.8 23 -10 13.9
16:15 1018 30.06 847 25.01 10.3 50.5 23 -10.2 13.6
16:20 1018 30.06 847 25.01 10.3 50.6 23 -9.7 14.6
16:25 1018 30.06 847 25.01 9.7 49.5 25 -9.5 14.9
16:30 1018 30.06 847 25.01 8.6 47.4 26 -10 14
16:35 1018 30.06 847 25.01 8.5 47.3 25 -10.5 13.1
16:40 1018 30.06 847 25.01 8.6 47.4 26 -10.1 13.9
16:45 1018 30.06 847 25.01 8.9 48 25 -10.1 13.9
16:50 1018 30.06 847 25.01 9.1 48.3 24 -10.4 13.4
16:55 1018 30.06 847 25.01 8.7 47.7 25 -10.2 13.7
17:00 1018 30.06 847 25.01 8.4 47.2 26 -10.1 13.9
17:05 1018 30.06 847 25.01 8.7 47.6 26 -10 14
17:10 1018 30.06 847 25.01 8.7 47.6 25 -10.3 13.4
17:15 1018 30.06 847 25.01 8.8 47.9 26 -9.7 14.5
17:20 1018 30.06 847 25.01 8.8 47.9 25 -10.1 13.9
17:25 1018 30.06 847 25.01 9 48.2 26 -9.7 14.6
17:30 1018 30.06 847 25.01 8.6 47.5 26 -9.6 14.7
17:35 1018 30.06 847 25.01 7.9 46.2 27 -10.1 13.8
17:40 1018 30.06 847 25.01 8.1 46.5 27 -10.1 13.9
17:45 1018 30.06 847 25.01 7.9 46.2 27 -9.8 14.3
17:50 1018 30.06 847 25.01 7.6 45.6 28 -9.9 14.1
17:55 1018 30.06 847 25.01 7.6 45.7 27 -10.1 13.8
18:00 1018 30.06 847 25.01 7.6 45.7 28 -10 14.1
18:05 1018 30.06 847 25.01 7.6 45.6 28 -9.7 14.5
18:10 1018 30.06 847 25.01 7.1 44.7 29 -9.8 14.3
18:15 1018 30.06 847 25.01 6.7 44.1 29 -9.9 14.2
18:20 1018 30.06 847 25.01 6.8 44.2 29 -9.9 14.2
18:25 1018 30.06 847 25.01 6.2 43.2 38 -7 19.5
18:30 1018 30.06 847 25.01 5.4 41.7 40 -7.2 19
18:35 1018 30.06 847 25.01 4.9 40.9 42 -6.9 19.6
18:40 1018 30.06 847 25.01 4.2 39.6 43 -7.4 18.8
18:45 1018 30.06 847 25.01 3.9 39.1 42 -7.8 18
18:50 1018 30.06 847 25.01 3.2 37.8 44 -7.8 18
18:55 1018 30.06 847 25.01 3 37.3 43 -8.3 17
19:00 1018 30.06 847 25.01 2.9 37.3 42 -8.7 16.4
19:05 1018 30.06 847 25.01 2.5 36.6 43 -8.9 16
19:10 1018 30.06 847 25.01 2.4 36.3 41 -9.7 14.5
19:15 1018 30.06 847 25.01 2.4 36.3 41 -9.6 14.6
19:20 1018 30.06 847 25.01 2.1 35.8 42 -9.4 15.1
19:25 1018 30.06 847 25.01 1.7 35.1 48 -8.3 17.1
19:30 1018 30.06 847 25.01 1.3 34.4 47 -8.7 16.3
19:35 1018 30.06 847 25.01 1.2 34.2 48 -8.8 16.2
19:40 1018 30.06 847 25.01 1.4 34.5 45 -9.2 15.4
19:45 1018 30.06 847 25.01 1.4 34.4 45 -9.2 15.4
19:50 1018 30.06 847 25.01 1.5 34.7 41 -10.3 13.5
19:55 1018 30.06 847 25.01 1.7 35.1 40 -10.5 13.1
20:00 1018 30.06 847 25.01 1.7 35 41 -10.2 13.7
20:05 1018 30.06 847 25.01 1.6 34.8 42 -10.2 13.7
20:10 1018 30.06 847 25.01 1.6 34.9 41 -10.2 13.6
20:15 1018 30.06 847 25.01 1.4 34.5 43 -10 14
20:20 1018 30.06 847 25.01 1.2 34.1 42 -10.4 13.2
20:25 1018 30.06 847 25.01 1.3 34.3 40 -11 12.1
20:30 1018 30.06 847 25.01 1.4 34.5 39 -11 12.1
20:35 1018 30.06 847 25.01 1.4 34.5 39 -11 12.2
20:40 1018 30.06 847 25.01 1.3 34.3 40 -10.9 12.4
20:45 1018 30.06 847 25.01 1 33.8 41 -10.9 12.4
20:50 1018 30.06 847 25.01 1 33.8 41 -10.8 12.6
20:55 1018 30.06 847 25.01 0.9 33.6 42 -10.7 12.7
21:00 1018 30.06 847 25.01 0.9 33.6 42 -10.6 12.8
21:05 1018 30.06 847 25.01 1 33.8 42 -10.7 12.8
21:10 1018 30.06 847 25.01 1 33.8 42 -10.4 13.3
21:15 1018 30.06 847 25.01 0.9 33.6 43 -10.2 13.6
21:20 1018 30.06 847 25.01 0.6 33.1 44 -10.2 13.6
21:25 1018 30.06 847 25.01 0.7 33.3 43 -10.6 12.9
21:30 1018 30.06 847 25.01 1 33.7 40 -11.2 11.8
21:35 1018 30.06 847 25.01 1 33.8 39 -11.5 11.4
21:40 1018 30.06 847 25.01 0.9 33.7 38 -11.8 10.8
21:45 1018 30.06 847 25.01 1 33.7 40 -11.2 11.9
21:50 1018 30.06 847 25.01 0.7 33.3 41 -11 12.3
21:55 1018 30.06 847 25.01 0.7 33.3 41 -11.2 11.9
22:00 1018 30.06 847 25.01 0.7 33.2 42 -10.8 12.6
22:05 1018 30.06 847 25.01 0.8 33.4 41 -11 12.2
22:10 1018 30.06 847 25.01 1.2 34.1 40 -10.9 12.4
22:15 1018 30.06 847 25.01 1.2 34.2 41 -10.8 12.6
22:20 1018 30.06 847 25.01 1.3 34.4 40 -10.8 12.6
22:25 1018 30.06 847 25.01 1.2 34.1 42 -10.4 13.3
22:30 1018 30.06 847 25.01 1.1 33.9 41 -10.7 12.7
22:35 1018 30.06 847 25.01 1.2 34.1 42 -10.3 13.4
22:40 1018 30.06 847 25.01 0.9 33.5 43 -10.4 13.2
22:45 1018 30.06 847 25.01 0.8 33.4 43 -10.4 13.2
22:50 1018 30.06 847 25.01 0.8 33.5 42 -10.6 12.9
22:55 1018 30.06 847 25.01 0.8 33.5 43 -10.4 13.3
23:00 1018 30.06 847 25.01 0.8 33.5 43 -10.4 13.4
23:05 1018 30.06 847 25.01 0.9 33.5 44 -10.2 13.7
23:10 1018 30.06 847 25.01 0.8 33.4 44 -10.3 13.5
23:15 1018 30.06 847 25.01 0.6 33.1 44 -10.3 13.5
23:20 1018 30.06 847 25.01 0.7 33.2 44 -10.2 13.7
23:25 1018 30.06 847 25.01 0.5 33 44 -10.3 13.5
23:30 1018 30.06 847 25.01 0.5 32.8 45 -10.2 13.6
23:35 1018 30.06 847 25.01 0.5 32.9 44 -10.4 13.3
23:40 1018 30.06 847 25.01 0.5 33 44 -10.5 13.1
23:45 1018 30.06 847 25.01 0.7 33.2 42 -10.8 12.6
23:50 1018 30.06 847 25.01 0.6 33.2 43 -10.4 13.3
23:55 1018 30.06 847 25.01 0.4 32.8 44 -10.4 13.3
24:00 1018 30.06 847 25.01 0.2 32.4 45 -10.3 13.5